sensor_id;sensor_type;location;lat;lon;timestamp;P1;durP1;ratioP1;P2;durP2;ratioP2
75441;SDS011;64019;48.312;14.226;2023-04-06T00:00:50;7.53;;;3.27;;
75441;SDS011;64019;48.312;14.226;2023-04-06T00:03:16;4.87;;;2.70;;
75441;SDS011;64019;48.312;14.226;2023-04-06T00:05:42;5.67;;;3.37;;
75441;SDS011;64019;48.312;14.226;2023-04-06T00:08:08;6.03;;;3.93;;
75441;SDS011;64019;48.312;14.226;2023-04-06T00:10:34;8.30;;;4.43;;
75441;SDS011;64019;48.312;14.226;2023-04-06T00:13:00;7.97;;;3.77;;
75441;SDS011;64019;48.312;14.226;2023-04-06T00:15:25;6.47;;;3.90;;
75441;SDS011;64019;48.312;14.226;2023-04-06T00:17:51;6.23;;;3.83;;
75441;SDS011;64019;48.312;14.226;2023-04-06T00:20:17;6.13;;;4.40;;
75441;SDS011;64019;48.312;14.226;2023-04-06T00:22:44;8.33;;;4.63;;
75441;SDS011;64019;48.312;14.226;2023-04-06T00:25:10;6.70;;;4.33;;
75441;SDS011;64019;48.312;14.226;2023-04-06T00:27:36;6.37;;;3.10;;
75441;SDS011;64019;48.312;14.226;2023-04-06T00:30:03;7.13;;;3.80;;
75441;SDS011;64019;48.312;14.226;2023-04-06T00:32:30;5.97;;;3.57;;
75441;SDS011;64019;48.312;14.226;2023-04-06T00:34:56;6.43;;;3.10;;
75441;SDS011;64019;48.312;14.226;2023-04-06T00:37:22;7.27;;;3.40;;
75441;SDS011;64019;48.312;14.226;2023-04-06T00:39:47;5.63;;;3.50;;
75441;SDS011;64019;48.312;14.226;2023-04-06T00:42:13;9.00;;;2.90;;
75441;SDS011;64019;48.312;14.226;2023-04-06T00:44:42;4.30;;;3.10;;
75441;SDS011;64019;48.312;14.226;2023-04-06T00:47:08;5.03;;;2.90;;
75441;SDS011;64019;48.312;14.226;2023-04-06T00:49:34;6.37;;;3.00;;
75441;SDS011;64019;48.312;14.226;2023-04-06T00:52:00;6.40;;;3.00;;
75441;SDS011;64019;48.312;14.226;2023-04-06T00:54:26;7.83;;;3.47;;
75441;SDS011;64019;48.312;14.226;2023-04-06T00:56:53;6.53;;;3.03;;
75441;SDS011;64019;48.312;14.226;2023-04-06T00:59:20;9.57;;;2.97;;
75441;SDS011;64019;48.312;14.226;2023-04-06T01:01:45;3.77;;;3.07;;
75441;SDS011;64019;48.312;14.226;2023-04-06T01:04:11;5.57;;;2.83;;
75441;SDS011;64019;48.312;14.226;2023-04-06T01:06:37;6.40;;;3.27;;
75441;SDS011;64019;48.312;14.226;2023-04-06T01:09:02;4.90;;;3.00;;
75441;SDS011;64019;48.312;14.226;2023-04-06T01:11:28;6.60;;;3.03;;
75441;SDS011;64019;48.312;14.226;2023-04-06T01:13:54;5.57;;;3.27;;
75441;SDS011;64019;48.312;14.226;2023-04-06T01:16:20;6.03;;;2.83;;
75441;SDS011;64019;48.312;14.226;2023-04-06T01:18:45;7.00;;;2.97;;
75441;SDS011;64019;48.312;14.226;2023-04-06T01:21:11;6.50;;;3.33;;
75441;SDS011;64019;48.312;14.226;2023-04-06T01:23:43;6.87;;;3.07;;
75441;SDS011;64019;48.312;14.226;2023-04-06T01:26:11;3.37;;;2.70;;
75441;SDS011;64019;48.312;14.226;2023-04-06T01:28:37;6.80;;;3.73;;
75441;SDS011;64019;48.312;14.226;2023-04-06T01:31:03;6.67;;;3.50;;
75441;SDS011;64019;48.312;14.226;2023-04-06T01:33:30;6.50;;;3.07;;
75441;SDS011;64019;48.312;14.226;2023-04-06T01:35:55;4.87;;;3.00;;
75441;SDS011;64019;48.312;14.226;2023-04-06T01:38:21;8.63;;;3.53;;
75441;SDS011;64019;48.312;14.226;2023-04-06T01:40:47;5.17;;;3.33;;
75441;SDS011;64019;48.312;14.226;2023-04-06T01:43:12;5.07;;;3.07;;
75441;SDS011;64019;48.312;14.226;2023-04-06T01:45:38;3.43;;;2.73;;
75441;SDS011;64019;48.312;14.226;2023-04-06T01:48:04;4.33;;;3.37;;
75441;SDS011;64019;48.312;14.226;2023-04-06T01:50:30;6.00;;;3.13;;
75441;SDS011;64019;48.312;14.226;2023-04-06T01:52:56;5.50;;;3.70;;
75441;SDS011;64019;48.312;14.226;2023-04-06T01:55:22;6.93;;;2.87;;
75441;SDS011;64019;48.312;14.226;2023-04-06T01:57:47;7.20;;;3.93;;
75441;SDS011;64019;48.312;14.226;2023-04-06T02:00:13;6.60;;;3.50;;
75441;SDS011;64019;48.312;14.226;2023-04-06T02:02:39;5.77;;;3.40;;
75441;SDS011;64019;48.312;14.226;2023-04-06T02:05:05;7.03;;;3.30;;
75441;SDS011;64019;48.312;14.226;2023-04-06T02:07:31;4.80;;;3.27;;
75441;SDS011;64019;48.312;14.226;2023-04-06T02:09:57;6.00;;;3.37;;
75441;SDS011;64019;48.312;14.226;2023-04-06T02:12:22;6.60;;;3.47;;
75441;SDS011;64019;48.312;14.226;2023-04-06T02:14:48;5.03;;;3.47;;
75441;SDS011;64019;48.312;14.226;2023-04-06T02:17:14;6.07;;;3.57;;
75441;SDS011;64019;48.312;14.226;2023-04-06T02:19:40;4.30;;;2.87;;
75441;SDS011;64019;48.312;14.226;2023-04-06T02:22:05;8.03;;;4.17;;
75441;SDS011;64019;48.312;14.226;2023-04-06T02:24:31;6.47;;;3.77;;
75441;SDS011;64019;48.312;14.226;2023-04-06T02:26:57;5.63;;;3.13;;
75441;SDS011;64019;48.312;14.226;2023-04-06T02:29:23;6.03;;;3.50;;
75441;SDS011;64019;48.312;14.226;2023-04-06T02:31:48;6.70;;;3.50;;
75441;SDS011;64019;48.312;14.226;2023-04-06T02:34:14;5.33;;;3.43;;
75441;SDS011;64019;48.312;14.226;2023-04-06T02:36:43;9.03;;;3.80;;
75441;SDS011;64019;48.312;14.226;2023-04-06T02:39:10;8.73;;;3.57;;
75441;SDS011;64019;48.312;14.226;2023-04-06T02:41:36;5.00;;;3.13;;
75441;SDS011;64019;48.312;14.226;2023-04-06T02:44:02;4.63;;;2.90;;
75441;SDS011;64019;48.312;14.226;2023-04-06T02:46:28;4.47;;;3.77;;
75441;SDS011;64019;48.312;14.226;2023-04-06T02:48:54;4.43;;;3.37;;
75441;SDS011;64019;48.312;14.226;2023-04-06T02:51:20;6.57;;;4.07;;
75441;SDS011;64019;48.312;14.226;2023-04-06T02:53:46;6.10;;;3.30;;
75441;SDS011;64019;48.312;14.226;2023-04-06T02:56:11;7.93;;;3.50;;
75441;SDS011;64019;48.312;14.226;2023-04-06T02:58:37;8.07;;;4.03;;
75441;SDS011;64019;48.312;14.226;2023-04-06T03:01:03;6.93;;;4.07;;
75441;SDS011;64019;48.312;14.226;2023-04-06T03:03:29;5.50;;;3.90;;
75441;SDS011;64019;48.312;14.226;2023-04-06T03:05:55;4.83;;;3.47;;
75441;SDS011;64019;48.312;14.226;2023-04-06T03:08:23;8.77;;;3.80;;
75441;SDS011;64019;48.312;14.226;2023-04-06T03:10:49;6.17;;;3.67;;
75441;SDS011;64019;48.312;14.226;2023-04-06T03:13:15;6.37;;;3.63;;
75441;SDS011;64019;48.312;14.226;2023-04-06T03:15:41;6.33;;;4.00;;
75441;SDS011;64019;48.312;14.226;2023-04-06T03:18:07;4.90;;;3.80;;
75441;SDS011;64019;48.312;14.226;2023-04-06T03:20:32;10.17;;;4.43;;
75441;SDS011;64019;48.312;14.226;2023-04-06T03:22:58;8.07;;;4.20;;
75441;SDS011;64019;48.312;14.226;2023-04-06T03:25:24;7.30;;;4.40;;
75441;SDS011;64019;48.312;14.226;2023-04-06T03:27:49;5.73;;;4.10;;
75441;SDS011;64019;48.312;14.226;2023-04-06T03:30:15;10.33;;;3.87;;
75441;SDS011;64019;48.312;14.226;2023-04-06T03:32:42;9.87;;;4.60;;
75441;SDS011;64019;48.312;14.226;2023-04-06T03:35:09;11.40;;;4.43;;
75441;SDS011;64019;48.312;14.226;2023-04-06T03:37:35;12.20;;;4.17;;
75441;SDS011;64019;48.312;14.226;2023-04-06T03:40:01;9.83;;;4.17;;
75441;SDS011;64019;48.312;14.226;2023-04-06T03:42:27;7.23;;;4.17;;
75441;SDS011;64019;48.312;14.226;2023-04-06T03:44:53;7.17;;;4.13;;
75441;SDS011;64019;48.312;14.226;2023-04-06T03:47:19;10.63;;;4.37;;
75441;SDS011;64019;48.312;14.226;2023-04-06T03:49:45;14.80;;;5.27;;
75441;SDS011;64019;48.312;14.226;2023-04-06T03:52:11;11.30;;;5.50;;
75441;SDS011;64019;48.312;14.226;2023-04-06T03:54:36;29.40;;;14.57;;
75441;SDS011;64019;48.312;14.226;2023-04-06T03:57:02;18.60;;;9.00;;
75441;SDS011;64019;48.312;14.226;2023-04-06T03:59:28;14.87;;;8.10;;
75441;SDS011;64019;48.312;14.226;2023-04-06T04:01:54;9.53;;;6.80;;
75441;SDS011;64019;48.312;14.226;2023-04-06T04:04:20;12.93;;;7.10;;
75441;SDS011;64019;48.312;14.226;2023-04-06T04:06:46;12.00;;;5.87;;
75441;SDS011;64019;48.312;14.226;2023-04-06T04:09:11;10.37;;;5.10;;
75441;SDS011;64019;48.312;14.226;2023-04-06T04:11:37;16.87;;;7.27;;
75441;SDS011;64019;48.312;14.226;2023-04-06T04:14:03;14.87;;;8.77;;
75441;SDS011;64019;48.312;14.226;2023-04-06T04:16:28;16.10;;;10.20;;
75441;SDS011;64019;48.312;14.226;2023-04-06T04:18:54;14.50;;;7.47;;
75441;SDS011;64019;48.312;14.226;2023-04-06T04:21:20;11.60;;;7.03;;
75441;SDS011;64019;48.312;14.226;2023-04-06T04:23:46;13.27;;;5.07;;
75441;SDS011;64019;48.312;14.226;2023-04-06T04:26:12;11.37;;;4.43;;
75441;SDS011;64019;48.312;14.226;2023-04-06T04:28:37;8.40;;;5.17;;
75441;SDS011;64019;48.312;14.226;2023-04-06T04:31:03;8.33;;;5.03;;
75441;SDS011;64019;48.312;14.226;2023-04-06T04:33:29;10.37;;;4.93;;
75441;SDS011;64019;48.312;14.226;2023-04-06T04:35:55;10.00;;;5.43;;
75441;SDS011;64019;48.312;14.226;2023-04-06T04:38:20;11.00;;;5.23;;
75441;SDS011;64019;48.312;14.226;2023-04-06T04:40:46;24.67;;;11.03;;
75441;SDS011;64019;48.312;14.226;2023-04-06T04:43:13;21.20;;;11.13;;
75441;SDS011;64019;48.312;14.226;2023-04-06T04:45:38;33.23;;;15.53;;
75441;SDS011;64019;48.312;14.226;2023-04-06T04:48:04;12.13;;;7.47;;
75441;SDS011;64019;48.312;14.226;2023-04-06T04:50:30;12.73;;;7.70;;
75441;SDS011;64019;48.312;14.226;2023-04-06T04:52:56;15.97;;;9.33;;
75441;SDS011;64019;48.312;14.226;2023-04-06T04:55:22;18.03;;;9.00;;
75441;SDS011;64019;48.312;14.226;2023-04-06T04:57:48;19.73;;;9.90;;
75441;SDS011;64019;48.312;14.226;2023-04-06T05:00:14;16.07;;;7.87;;
75441;SDS011;64019;48.312;14.226;2023-04-06T05:02:39;19.37;;;11.27;;
75441;SDS011;64019;48.312;14.226;2023-04-06T05:05:05;14.27;;;9.67;;
75441;SDS011;64019;48.312;14.226;2023-04-06T05:07:31;9.80;;;5.47;;
75441;SDS011;64019;48.312;14.226;2023-04-06T05:09:58;11.13;;;5.03;;
75441;SDS011;64019;48.312;14.226;2023-04-06T05:12:24;6.53;;;4.63;;
75441;SDS011;64019;48.312;14.226;2023-04-06T05:14:52;9.57;;;5.43;;
75441;SDS011;64019;48.312;14.226;2023-04-06T05:17:18;20.23;;;8.47;;
75441;SDS011;64019;48.312;14.226;2023-04-06T05:19:44;12.67;;;6.37;;
75441;SDS011;64019;48.312;14.226;2023-04-06T05:22:10;19.20;;;12.27;;
75441;SDS011;64019;48.312;14.226;2023-04-06T05:24:36;20.27;;;10.80;;
75441;SDS011;64019;48.312;14.226;2023-04-06T05:27:02;23.13;;;11.73;;
75441;SDS011;64019;48.312;14.226;2023-04-06T05:29:28;20.43;;;11.83;;
75441;SDS011;64019;48.312;14.226;2023-04-06T05:31:54;18.87;;;8.37;;
75441;SDS011;64019;48.312;14.226;2023-04-06T05:34:20;20.47;;;7.50;;
75441;SDS011;64019;48.312;14.226;2023-04-06T05:36:46;19.13;;;5.70;;
75441;SDS011;64019;48.312;14.226;2023-04-06T05:39:12;8.40;;;4.97;;
75441;SDS011;64019;48.312;14.226;2023-04-06T05:41:38;8.43;;;5.53;;
75441;SDS011;64019;48.312;14.226;2023-04-06T05:44:03;13.27;;;5.13;;
75441;SDS011;64019;48.312;14.226;2023-04-06T05:46:29;11.93;;;5.50;;
75441;SDS011;64019;48.312;14.226;2023-04-06T05:48:55;8.20;;;4.80;;
75441;SDS011;64019;48.312;14.226;2023-04-06T05:51:21;10.90;;;4.80;;
75441;SDS011;64019;48.312;14.226;2023-04-06T05:53:46;9.07;;;4.90;;
75441;SDS011;64019;48.312;14.226;2023-04-06T05:56:12;7.00;;;5.00;;
75441;SDS011;64019;48.312;14.226;2023-04-06T05:58:38;10.83;;;5.03;;
75441;SDS011;64019;48.312;14.226;2023-04-06T06:01:04;7.83;;;4.87;;
75441;SDS011;64019;48.312;14.226;2023-04-06T06:03:30;8.50;;;5.37;;
75441;SDS011;64019;48.312;14.226;2023-04-06T06:06:02;10.90;;;5.40;;
75441;SDS011;64019;48.312;14.226;2023-04-06T06:08:29;9.47;;;5.20;;
75441;SDS011;64019;48.312;14.226;2023-04-06T06:10:54;8.70;;;5.20;;
75441;SDS011;64019;48.312;14.226;2023-04-06T06:13:21;11.50;;;5.77;;
75441;SDS011;64019;48.312;14.226;2023-04-06T06:15:48;10.00;;;5.03;;
75441;SDS011;64019;48.312;14.226;2023-04-06T06:18:14;8.80;;;5.00;;
75441;SDS011;64019;48.312;14.226;2023-04-06T06:20:40;11.87;;;5.70;;
75441;SDS011;64019;48.312;14.226;2023-04-06T06:23:06;14.00;;;5.47;;
75441;SDS011;64019;48.312;14.226;2023-04-06T06:25:32;11.17;;;5.27;;
75441;SDS011;64019;48.312;14.226;2023-04-06T06:27:58;10.27;;;5.70;;
75441;SDS011;64019;48.312;14.226;2023-04-06T06:30:24;11.83;;;5.50;;
75441;SDS011;64019;48.312;14.226;2023-04-06T06:32:50;7.60;;;4.70;;
75441;SDS011;64019;48.312;14.226;2023-04-06T06:35:16;9.03;;;5.00;;
75441;SDS011;64019;48.312;14.226;2023-04-06T06:37:42;13.93;;;5.30;;
75441;SDS011;64019;48.312;14.226;2023-04-06T06:40:09;12.03;;;5.17;;
75441;SDS011;64019;48.312;14.226;2023-04-06T06:42:35;8.43;;;5.17;;
75441;SDS011;64019;48.312;14.226;2023-04-06T06:45:01;12.20;;;5.33;;
75441;SDS011;64019;48.312;14.226;2023-04-06T06:47:27;10.80;;;4.63;;
75441;SDS011;64019;48.312;14.226;2023-04-06T06:49:53;13.10;;;5.00;;
75441;SDS011;64019;48.312;14.226;2023-04-06T06:52:19;8.37;;;5.27;;
75441;SDS011;64019;48.312;14.226;2023-04-06T06:54:44;11.03;;;5.03;;
75441;SDS011;64019;48.312;14.226;2023-04-06T06:57:10;9.63;;;5.53;;
75441;SDS011;64019;48.312;14.226;2023-04-06T06:59:36;13.27;;;5.07;;
75441;SDS011;64019;48.312;14.226;2023-04-06T07:02:01;9.03;;;5.23;;
75441;SDS011;64019;48.312;14.226;2023-04-06T07:04:27;9.57;;;5.17;;
75441;SDS011;64019;48.312;14.226;2023-04-06T07:06:53;11.63;;;5.07;;
75441;SDS011;64019;48.312;14.226;2023-04-06T07:09:18;9.33;;;5.03;;
75441;SDS011;64019;48.312;14.226;2023-04-06T07:11:44;12.90;;;5.40;;
75441;SDS011;64019;48.312;14.226;2023-04-06T07:14:10;11.10;;;5.17;;
75441;SDS011;64019;48.312;14.226;2023-04-06T07:16:36;9.23;;;5.07;;
75441;SDS011;64019;48.312;14.226;2023-04-06T07:19:02;11.13;;;5.17;;
75441;SDS011;64019;48.312;14.226;2023-04-06T07:21:28;10.57;;;4.80;;
75441;SDS011;64019;48.312;14.226;2023-04-06T07:23:53;10.50;;;6.00;;
75441;SDS011;64019;48.312;14.226;2023-04-06T07:26:19;8.90;;;5.17;;
75441;SDS011;64019;48.312;14.226;2023-04-06T07:28:45;8.90;;;5.03;;
75441;SDS011;64019;48.312;14.226;2023-04-06T07:31:11;10.17;;;5.57;;
75441;SDS011;64019;48.312;14.226;2023-04-06T07:33:37;14.37;;;5.30;;
75441;SDS011;64019;48.312;14.226;2023-04-06T07:36:03;8.47;;;5.37;;
75441;SDS011;64019;48.312;14.226;2023-04-06T07:38:29;9.30;;;5.20;;
75441;SDS011;64019;48.312;14.226;2023-04-06T07:40:55;14.63;;;5.37;;
75441;SDS011;64019;48.312;14.226;2023-04-06T07:43:21;10.07;;;5.47;;
75441;SDS011;64019;48.312;14.226;2023-04-06T07:45:46;8.87;;;5.30;;
75441;SDS011;64019;48.312;14.226;2023-04-06T07:48:12;8.13;;;5.47;;
75441;SDS011;64019;48.312;14.226;2023-04-06T07:50:38;10.10;;;5.23;;
75441;SDS011;64019;48.312;14.226;2023-04-06T07:53:04;11.30;;;5.30;;
75441;SDS011;64019;48.312;14.226;2023-04-06T07:55:30;11.07;;;5.43;;
75441;SDS011;64019;48.312;14.226;2023-04-06T07:57:55;8.60;;;4.90;;
75441;SDS011;64019;48.312;14.226;2023-04-06T08:00:21;11.70;;;5.20;;
75441;SDS011;64019;48.312;14.226;2023-04-06T08:02:47;9.30;;;4.97;;
75441;SDS011;64019;48.312;14.226;2023-04-06T08:05:13;10.40;;;5.47;;
75441;SDS011;64019;48.312;14.226;2023-04-06T08:07:38;12.93;;;5.40;;
75441;SDS011;64019;48.312;14.226;2023-04-06T08:10:04;12.20;;;5.20;;
75441;SDS011;64019;48.312;14.226;2023-04-06T08:12:31;9.53;;;5.13;;
75441;SDS011;64019;48.312;14.226;2023-04-06T08:14:57;8.83;;;5.17;;
75441;SDS011;64019;48.312;14.226;2023-04-06T08:17:24;13.83;;;6.13;;
75441;SDS011;64019;48.312;14.226;2023-04-06T08:19:50;10.83;;;5.57;;
75441;SDS011;64019;48.312;14.226;2023-04-06T08:22:16;10.60;;;5.13;;
75441;SDS011;64019;48.312;14.226;2023-04-06T08:24:42;10.40;;;5.33;;
75441;SDS011;64019;48.312;14.226;2023-04-06T08:27:07;11.70;;;5.47;;
75441;SDS011;64019;48.312;14.226;2023-04-06T08:29:33;9.77;;;5.43;;
75441;SDS011;64019;48.312;14.226;2023-04-06T08:31:59;9.20;;;5.10;;
75441;SDS011;64019;48.312;14.226;2023-04-06T08:34:25;13.30;;;6.07;;
75441;SDS011;64019;48.312;14.226;2023-04-06T08:36:50;10.97;;;5.80;;
75441;SDS011;64019;48.312;14.226;2023-04-06T08:39:16;10.40;;;5.50;;
75441;SDS011;64019;48.312;14.226;2023-04-06T08:41:42;12.10;;;5.53;;
75441;SDS011;64019;48.312;14.226;2023-04-06T08:44:08;14.27;;;6.83;;
75441;SDS011;64019;48.312;14.226;2023-04-06T08:46:34;10.00;;;5.83;;
75441;SDS011;64019;48.312;14.226;2023-04-06T08:49:01;11.13;;;5.83;;
75441;SDS011;64019;48.312;14.226;2023-04-06T08:51:28;13.10;;;5.70;;
75441;SDS011;64019;48.312;14.226;2023-04-06T08:53:57;12.10;;;5.23;;
75441;SDS011;64019;48.312;14.226;2023-04-06T08:56:24;7.90;;;5.37;;
75441;SDS011;64019;48.312;14.226;2023-04-06T08:58:52;7.40;;;5.23;;
75441;SDS011;64019;48.312;14.226;2023-04-06T09:01:22;8.40;;;5.07;;
75441;SDS011;64019;48.312;14.226;2023-04-06T09:03:50;7.70;;;4.73;;
75441;SDS011;64019;48.312;14.226;2023-04-06T09:06:18;10.10;;;5.07;;
75441;SDS011;64019;48.312;14.226;2023-04-06T09:08:44;6.57;;;4.40;;
75441;SDS011;64019;48.312;14.226;2023-04-06T09:11:10;7.43;;;4.43;;
75441;SDS011;64019;48.312;14.226;2023-04-06T09:13:48;7.50;;;4.23;;
75441;SDS011;64019;48.312;14.226;2023-04-06T09:16:19;5.43;;;3.80;;
75441;SDS011;64019;48.312;14.226;2023-04-06T09:18:46;10.77;;;4.17;;
75441;SDS011;64019;48.312;14.226;2023-04-06T09:21:12;6.53;;;4.00;;
75441;SDS011;64019;48.312;14.226;2023-04-06T09:23:57;7.03;;;4.03;;
75441;SDS011;64019;48.312;14.226;2023-04-06T09:26:27;7.00;;;3.53;;
75441;SDS011;64019;48.312;14.226;2023-04-06T09:28:54;7.93;;;3.43;;
75441;SDS011;64019;48.312;14.226;2023-04-06T09:31:21;7.63;;;3.90;;
75441;SDS011;64019;48.312;14.226;2023-04-06T09:33:52;6.57;;;3.47;;
75441;SDS011;64019;48.312;14.226;2023-04-06T09:36:18;5.90;;;3.27;;
75441;SDS011;64019;48.312;14.226;2023-04-06T09:38:52;6.90;;;3.60;;
75441;SDS011;64019;48.312;14.226;2023-04-06T09:44:01;9.47;;;3.87;;
75441;SDS011;64019;48.312;14.226;2023-04-06T09:46:31;7.63;;;4.00;;
75441;SDS011;64019;48.312;14.226;2023-04-06T09:49:02;9.43;;;3.60;;
75441;SDS011;64019;48.312;14.226;2023-04-06T09:51:34;7.03;;;3.83;;
75441;SDS011;64019;48.312;14.226;2023-04-06T09:54:22;6.13;;;3.77;;
75441;SDS011;64019;48.312;14.226;2023-04-06T09:56:54;7.73;;;3.77;;
75441;SDS011;64019;48.312;14.226;2023-04-06T10:02:48;7.90;;;3.40;;
75441;SDS011;64019;48.312;14.226;2023-04-06T10:08:19;6.83;;;3.93;;
75441;SDS011;64019;48.312;14.226;2023-04-06T10:10:49;6.97;;;4.30;;
75441;SDS011;64019;48.312;14.226;2023-04-06T10:13:16;10.03;;;4.77;;
75441;SDS011;64019;48.312;14.226;2023-04-06T10:15:43;9.17;;;4.63;;
75441;SDS011;64019;48.312;14.226;2023-04-06T10:18:09;10.73;;;4.50;;
75441;SDS011;64019;48.312;14.226;2023-04-06T10:20:38;5.97;;;3.97;;
75441;SDS011;64019;48.312;14.226;2023-04-06T10:26:11;6.97;;;3.60;;
75441;SDS011;64019;48.312;14.226;2023-04-06T10:28:40;7.80;;;3.53;;
75441;SDS011;64019;48.312;14.226;2023-04-06T10:31:06;6.50;;;3.40;;
75441;SDS011;64019;48.312;14.226;2023-04-06T10:33:32;8.37;;;4.40;;
75441;SDS011;64019;48.312;14.226;2023-04-06T10:36:09;6.63;;;3.80;;
75441;SDS011;64019;48.312;14.226;2023-04-06T10:38:39;9.40;;;4.63;;
75441;SDS011;64019;48.312;14.226;2023-04-06T10:41:05;5.27;;;3.63;;
75441;SDS011;64019;48.312;14.226;2023-04-06T10:43:36;7.77;;;3.57;;
75441;SDS011;64019;48.312;14.226;2023-04-06T10:46:03;9.63;;;4.10;;
75441;SDS011;64019;48.312;14.226;2023-04-06T10:48:37;7.10;;;3.73;;
75441;SDS011;64019;48.312;14.226;2023-04-06T10:51:17;9.43;;;4.63;;
75441;SDS011;64019;48.312;14.226;2023-04-06T10:53:47;5.80;;;3.83;;
75441;SDS011;64019;48.312;14.226;2023-04-06T10:56:17;5.57;;;3.60;;
75441;SDS011;64019;48.312;14.226;2023-04-06T10:58:46;8.00;;;4.37;;
75441;SDS011;64019;48.312;14.226;2023-04-06T11:01:16;6.93;;;3.90;;
75441;SDS011;64019;48.312;14.226;2023-04-06T11:03:46;9.93;;;4.00;;
75441;SDS011;64019;48.312;14.226;2023-04-06T11:08:52;5.47;;;4.00;;
75441;SDS011;64019;48.312;14.226;2023-04-06T11:11:19;5.93;;;3.43;;
75441;SDS011;64019;48.312;14.226;2023-04-06T11:16:15;7.47;;;4.13;;
75441;SDS011;64019;48.312;14.226;2023-04-06T11:18:46;10.50;;;4.97;;
75441;SDS011;64019;48.312;14.226;2023-04-06T11:21:15;8.60;;;4.87;;
75441;SDS011;64019;48.312;14.226;2023-04-06T11:23:41;6.33;;;4.20;;
75441;SDS011;64019;48.312;14.226;2023-04-06T11:26:13;5.37;;;4.20;;
75441;SDS011;64019;48.312;14.226;2023-04-06T11:28:42;8.13;;;4.57;;
75441;SDS011;64019;48.312;14.226;2023-04-06T11:31:11;6.43;;;4.50;;
75441;SDS011;64019;48.312;14.226;2023-04-06T11:33:37;7.27;;;4.03;;
75441;SDS011;64019;48.312;14.226;2023-04-06T11:36:04;7.93;;;4.37;;
75441;SDS011;64019;48.312;14.226;2023-04-06T11:45:07;9.13;;;4.57;;
75441;SDS011;64019;48.312;14.226;2023-04-06T11:47:35;8.30;;;4.40;;
75441;SDS011;64019;48.312;14.226;2023-04-06T11:50:05;6.20;;;3.67;;
75441;SDS011;64019;48.312;14.226;2023-04-06T11:52:35;5.17;;;3.80;;
75441;SDS011;64019;48.312;14.226;2023-04-06T11:55:10;9.33;;;4.17;;
75441;SDS011;64019;48.312;14.226;2023-04-06T11:57:40;5.80;;;3.80;;
75441;SDS011;64019;48.312;14.226;2023-04-06T12:00:06;7.20;;;4.07;;
75441;SDS011;64019;48.312;14.226;2023-04-06T12:02:34;7.40;;;3.93;;
75441;SDS011;64019;48.312;14.226;2023-04-06T12:05:01;11.07;;;4.53;;
75441;SDS011;64019;48.312;14.226;2023-04-06T12:07:28;6.50;;;4.60;;
75441;SDS011;64019;48.312;14.226;2023-04-06T12:09:54;7.07;;;3.80;;
75441;SDS011;64019;48.312;14.226;2023-04-06T12:12:20;8.80;;;4.47;;
75441;SDS011;64019;48.312;14.226;2023-04-06T12:14:46;5.90;;;4.50;;
75441;SDS011;64019;48.312;14.226;2023-04-06T12:17:11;9.20;;;4.20;;
75441;SDS011;64019;48.312;14.226;2023-04-06T12:19:37;6.50;;;4.17;;
75441;SDS011;64019;48.312;14.226;2023-04-06T12:22:03;8.03;;;3.83;;
75441;SDS011;64019;48.312;14.226;2023-04-06T12:24:29;5.70;;;4.00;;
75441;SDS011;64019;48.312;14.226;2023-04-06T12:26:54;6.70;;;3.80;;
75441;SDS011;64019;48.312;14.226;2023-04-06T12:29:20;8.47;;;4.17;;
75441;SDS011;64019;48.312;14.226;2023-04-06T12:31:45;6.33;;;3.73;;
75441;SDS011;64019;48.312;14.226;2023-04-06T12:34:11;9.97;;;4.43;;
75441;SDS011;64019;48.312;14.226;2023-04-06T12:36:37;5.83;;;3.83;;
75441;SDS011;64019;48.312;14.226;2023-04-06T12:39:04;10.20;;;4.27;;
75441;SDS011;64019;48.312;14.226;2023-04-06T12:41:30;7.10;;;3.20;;
75441;SDS011;64019;48.312;14.226;2023-04-06T12:43:56;6.60;;;3.77;;
75441;SDS011;64019;48.312;14.226;2023-04-06T12:46:24;7.47;;;3.83;;
75441;SDS011;64019;48.312;14.226;2023-04-06T12:48:50;7.90;;;4.07;;
75441;SDS011;64019;48.312;14.226;2023-04-06T12:51:20;6.07;;;3.70;;
75441;SDS011;64019;48.312;14.226;2023-04-06T12:53:46;5.80;;;3.90;;
75441;SDS011;64019;48.312;14.226;2023-04-06T12:56:13;10.07;;;4.07;;
75441;SDS011;64019;48.312;14.226;2023-04-06T12:58:40;6.47;;;4.10;;
75441;SDS011;64019;48.312;14.226;2023-04-06T13:01:06;7.97;;;4.20;;
75441;SDS011;64019;48.312;14.226;2023-04-06T13:03:33;7.77;;;4.10;;
75441;SDS011;64019;48.312;14.226;2023-04-06T13:06:00;5.33;;;3.70;;
75441;SDS011;64019;48.312;14.226;2023-04-06T13:08:26;6.00;;;3.80;;
75441;SDS011;64019;48.312;14.226;2023-04-06T13:10:52;4.77;;;3.57;;
75441;SDS011;64019;48.312;14.226;2023-04-06T13:13:28;6.40;;;3.87;;
75441;SDS011;64019;48.312;14.226;2023-04-06T13:15:55;5.50;;;3.63;;
75441;SDS011;64019;48.312;14.226;2023-04-06T13:18:33;9.10;;;3.70;;
75441;SDS011;64019;48.312;14.226;2023-04-06T13:21:00;9.27;;;3.80;;
75441;SDS011;64019;48.312;14.226;2023-04-06T13:23:26;6.00;;;4.10;;
75441;SDS011;64019;48.312;14.226;2023-04-06T13:26:10;6.63;;;3.47;;
75441;SDS011;64019;48.312;14.226;2023-04-06T13:28:36;6.53;;;3.67;;
75441;SDS011;64019;48.312;14.226;2023-04-06T13:31:03;6.03;;;3.17;;
75441;SDS011;64019;48.312;14.226;2023-04-06T13:33:29;7.60;;;3.27;;
75441;SDS011;64019;48.312;14.226;2023-04-06T13:35:56;6.90;;;4.10;;
75441;SDS011;64019;48.312;14.226;2023-04-06T13:38:22;7.77;;;3.47;;
75441;SDS011;64019;48.312;14.226;2023-04-06T13:40:51;6.23;;;3.13;;
75441;SDS011;64019;48.312;14.226;2023-04-06T13:43:17;7.17;;;3.67;;
75441;SDS011;64019;48.312;14.226;2023-04-06T13:45:52;4.13;;;3.10;;
75441;SDS011;64019;48.312;14.226;2023-04-06T13:48:20;4.90;;;3.27;;
75441;SDS011;64019;48.312;14.226;2023-04-06T13:50:46;7.03;;;3.50;;
75441;SDS011;64019;48.312;14.226;2023-04-06T13:53:12;5.97;;;3.40;;
75441;SDS011;64019;48.312;14.226;2023-04-06T13:55:38;6.00;;;3.40;;
75441;SDS011;64019;48.312;14.226;2023-04-06T13:58:03;4.87;;;3.20;;
75441;SDS011;64019;48.312;14.226;2023-04-06T14:00:29;4.43;;;3.23;;
75441;SDS011;64019;48.312;14.226;2023-04-06T14:02:55;6.33;;;3.33;;
75441;SDS011;64019;48.312;14.226;2023-04-06T14:05:21;4.00;;;3.27;;
75441;SDS011;64019;48.312;14.226;2023-04-06T14:07:48;5.73;;;3.33;;
75441;SDS011;64019;48.312;14.226;2023-04-06T14:10:14;5.13;;;3.37;;
75441;SDS011;64019;48.312;14.226;2023-04-06T14:12:41;4.23;;;3.10;;
75441;SDS011;64019;48.312;14.226;2023-04-06T14:15:07;5.47;;;3.20;;
75441;SDS011;64019;48.312;14.226;2023-04-06T14:17:34;5.67;;;3.20;;
75441;SDS011;64019;48.312;14.226;2023-04-06T14:19:59;3.97;;;3.07;;
75441;SDS011;64019;48.312;14.226;2023-04-06T14:22:25;5.53;;;3.27;;
75441;SDS011;64019;48.312;14.226;2023-04-06T14:24:51;3.47;;;3.13;;
75441;SDS011;64019;48.312;14.226;2023-04-06T14:27:16;3.67;;;2.90;;
75441;SDS011;64019;48.312;14.226;2023-04-06T14:29:42;5.90;;;3.43;;
75441;SDS011;64019;48.312;14.226;2023-04-06T14:32:07;4.30;;;3.60;;
75441;SDS011;64019;48.312;14.226;2023-04-06T14:34:36;5.07;;;3.37;;
75441;SDS011;64019;48.312;14.226;2023-04-06T14:37:02;5.50;;;3.90;;
75441;SDS011;64019;48.312;14.226;2023-04-06T14:39:27;6.53;;;3.33;;
75441;SDS011;64019;48.312;14.226;2023-04-06T14:41:53;4.80;;;3.03;;
75441;SDS011;64019;48.312;14.226;2023-04-06T14:44:19;5.97;;;3.20;;
75441;SDS011;64019;48.312;14.226;2023-04-06T14:46:45;6.70;;;2.83;;
75441;SDS011;64019;48.312;14.226;2023-04-06T14:49:11;5.60;;;3.30;;
75441;SDS011;64019;48.312;14.226;2023-04-06T14:51:37;4.20;;;3.23;;